createdAt,value
2022-08-02T04:27:50.108Z,72.79
2022-08-02T04:30:50.840Z,69.85
2022-08-02T04:33:53.127Z,67.50
2022-08-02T04:36:56.054Z,66.15
2022-08-02T04:39:58.153Z,65.42
2022-08-02T04:43:00.579Z,65.26
2022-08-02T04:46:03.287Z,64.83
2022-08-02T04:49:05.901Z,64.47
2022-08-02T04:52:08.277Z,64.08
2022-08-02T04:55:10.804Z,64.09
2022-08-02T04:58:38.678Z,63.81
2022-08-02T05:01:36.510Z,63.02
2022-08-02T05:04:38.605Z,62.08
2022-08-02T05:07:40.964Z,61.81
2022-08-02T05:10:43.047Z,61.44
2022-08-02T05:13:59.037Z,62.31
2022-08-02T05:17:01.594Z,61.28
2022-08-02T05:20:05.849Z,62.11
2022-08-02T05:23:08.000Z,61.97
2022-08-02T05:26:10.338Z,61.58
2022-08-02T05:29:12.457Z,61.84
2022-08-02T05:32:14.812Z,61.41
2022-08-02T05:35:21.952Z,60.98
2022-08-02T05:38:25.973Z,59.69
2022-08-02T05:41:28.490Z,60.81
2022-08-02T05:44:30.838Z,58.91
2022-08-02T05:47:32.926Z,57.74
2022-08-02T05:50:39.671Z,58.02
2022-08-02T05:53:48.691Z,57.72
2022-08-02T05:56:56.699Z,57.38
2022-08-02T06:00:09.627Z,57.04
2022-08-02T06:03:32.286Z,56.91
2022-08-02T06:06:35.703Z,56.51
2022-08-02T06:09:39.058Z,56.14
2022-08-02T06:12:54.344Z,55.31
2022-08-02T06:15:59.443Z,54.25
2022-08-02T06:19:02.239Z,53.56
2022-08-02T06:22:32.786Z,53.31
2022-08-02T06:25:50.144Z,53.26
2022-08-02T06:28:55.827Z,52.62
2022-08-02T06:31:58.729Z,51.47
2022-08-02T06:35:01.996Z,51.33
2022-08-02T06:38:04.713Z,51.04
2022-08-02T06:41:14.535Z,51.17
2022-08-02T06:47:39.051Z,49.58
2022-08-02T06:50:44.070Z,50.03
2022-08-02T06:53:46.672Z,49.98
2022-08-02T06:56:48.999Z,48.83
2022-08-02T06:59:51.190Z,48.55
2022-08-02T07:02:53.638Z,47.88
2022-08-02T07:05:55.710Z,48.23
2022-08-02T07:09:19.486Z,47.60
2022-08-02T07:12:20.683Z,47.25
2022-08-02T07:15:23.211Z,47.54
2022-08-02T07:18:25.510Z,48.26
2022-08-02T07:21:56.488Z,48.27
2022-08-02T07:24:50.755Z,48.41
2022-08-02T07:27:53.098Z,48.70
2022-08-02T07:30:58.623Z,48.30
2022-08-02T07:34:00.950Z,48.48
2022-08-02T07:37:03.707Z,48.08
2022-08-02T07:40:13.338Z,48.02
2022-08-02T07:43:17.059Z,46.73
2022-08-02T07:46:19.407Z,47.16
2022-08-02T07:49:21.559Z,46.74
2022-08-02T07:52:23.941Z,46.16
2022-08-02T07:55:39.628Z,46.27
2022-08-02T07:58:43.007Z,45.94
2022-08-02T08:01:46.130Z,46.85
2022-08-02T08:04:48.653Z,46.72
2022-08-02T08:07:50.763Z,46.09
2022-08-02T08:10:53.140Z,46.69
2022-08-02T08:13:55.255Z,45.50
2022-08-02T08:16:57.617Z,45.37
2022-08-02T08:19:59.703Z,45.69
2022-08-02T08:23:02.086Z,46.45
2022-08-02T08:26:05.084Z,44.71
2022-08-02T08:29:07.601Z,44.68
2022-08-02T08:32:17.846Z,45.32
2022-08-02T08:35:20.840Z,44.23
2022-08-02T08:38:23.067Z,43.95
2022-08-02T08:41:25.713Z,43.59
2022-08-02T08:44:33.170Z,43.54
2022-08-02T08:47:38.522Z,43.20
2022-08-02T08:50:49.755Z,42.86
2022-08-02T08:53:54.150Z,43.29
2022-08-02T08:56:58.181Z,42.56
2022-08-02T09:00:00.882Z,42.28
2022-08-02T09:03:06.123Z,41.84
2022-08-02T09:06:08.470Z,41.79
2022-08-02T09:09:10.563Z,42.60
2022-08-02T09:12:15.204Z,41.04
2022-08-02T09:15:25.060Z,41.19
2022-08-02T09:18:32.453Z,41.11
2022-08-02T09:21:36.550Z,41.12
2022-08-02T09:24:46.977Z,39.96
2022-08-02T09:27:49.454Z,40.25
2022-08-02T09:30:51.854Z,41.07
2022-08-02T09:33:56.433Z,40.76
2022-08-02T09:36:58.782Z,41.19
2022-08-02T09:40:05.197Z,39.88
2022-08-02T09:43:08.798Z,38.92
2022-08-02T09:46:24.141Z,38.46
2022-08-02T09:49:27.201Z,38.49
2022-08-02T09:52:37.288Z,38.31
2022-08-02T09:55:56.244Z,37.85
2022-08-02T09:58:58.346Z,37.20
2022-08-02T10:02:04.175Z,37.83
2022-08-02T10:05:07.195Z,37.48
2022-08-02T10:08:09.722Z,36.66
2022-08-02T10:11:12.486Z,35.89
2022-08-02T10:14:15.263Z,34.89
2022-08-02T10:17:19.809Z,35.72
2022-08-02T10:20:22.565Z,35.24
2022-08-02T10:23:27.058Z,33.92
2022-08-02T10:26:35.176Z,33.88
2022-08-02T10:29:44.777Z,34.18
2022-08-02T10:33:00.887Z,33.95
2022-08-02T10:36:07.566Z,35.17
2022-08-02T10:39:10.335Z,33.58
